sensor_id;sensor_type;location;lat;lon;timestamp;P1;durP1;ratioP1;P2;durP2;ratioP2
84889;SDS011;75153;52.222;5.160;2024-03-23T00:56:05;19.30;;;5.57;;
84889;SDS011;75153;52.222;5.160;2024-03-23T00:58:31;22.40;;;5.30;;
84889;SDS011;75153;52.222;5.160;2024-03-23T01:00:56;22.60;;;5.40;;
84889;SDS011;75153;52.222;5.160;2024-03-23T01:03:21;25.80;;;5.97;;
84889;SDS011;75153;52.222;5.160;2024-03-23T01:05:47;20.83;;;5.65;;
84889;SDS011;75153;52.222;5.160;2024-03-23T01:08:13;24.63;;;5.83;;
84889;SDS011;75153;52.222;5.160;2024-03-23T01:10:39;23.65;;;6.20;;
84889;SDS011;75153;52.222;5.160;2024-03-23T01:13:04;35.17;;;7.07;;
84889;SDS011;75153;52.222;5.160;2024-03-23T01:15:30;22.27;;;5.60;;
84889;SDS011;75153;52.222;5.160;2024-03-23T01:17:55;21.43;;;5.57;;
84889;SDS011;75153;52.222;5.160;2024-03-23T01:20:20;24.02;;;6.00;;
84889;SDS011;75153;52.222;5.160;2024-03-23T01:22:46;19.95;;;5.10;;
84889;SDS011;75153;52.222;5.160;2024-03-23T01:25:11;17.87;;;5.33;;
84889;SDS011;75153;52.222;5.160;2024-03-23T01:27:36;19.53;;;4.60;;
84889;SDS011;75153;52.222;5.160;2024-03-23T01:30:02;16.13;;;4.60;;
84889;SDS011;75153;52.222;5.160;2024-03-23T01:32:27;20.13;;;5.13;;
84889;SDS011;75153;52.222;5.160;2024-03-23T01:34:53;16.52;;;4.97;;
84889;SDS011;75153;52.222;5.160;2024-03-23T01:37:18;16.73;;;4.73;;
84889;SDS011;75153;52.222;5.160;2024-03-23T01:39:44;18.47;;;5.70;;
84889;SDS011;75153;52.222;5.160;2024-03-23T01:42:09;20.00;;;5.00;;
84889;SDS011;75153;52.222;5.160;2024-03-23T01:44:34;18.47;;;6.00;;
84889;SDS011;75153;52.222;5.160;2024-03-23T01:47:00;19.67;;;5.30;;
84889;SDS011;75153;52.222;5.160;2024-03-23T01:49:26;21.65;;;5.40;;
84889;SDS011;75153;52.222;5.160;2024-03-23T01:51:51;19.07;;;4.57;;
84889;SDS011;75153;52.222;5.160;2024-03-23T01:54:16;16.03;;;5.23;;
84889;SDS011;75153;52.222;5.160;2024-03-23T01:56:42;20.52;;;5.00;;
84889;SDS011;75153;52.222;5.160;2024-03-23T01:59:07;16.90;;;4.30;;
84889;SDS011;75153;52.222;5.160;2024-03-23T02:01:34;17.50;;;4.67;;
84889;SDS011;75153;52.222;5.160;2024-03-23T02:04:03;14.90;;;4.47;;
84889;SDS011;75153;52.222;5.160;2024-03-23T02:06:28;25.20;;;6.00;;
84889;SDS011;75153;52.222;5.160;2024-03-23T02:08:54;20.53;;;5.30;;
84889;SDS011;75153;52.222;5.160;2024-03-23T02:11:20;16.02;;;4.90;;
84889;SDS011;75153;52.222;5.160;2024-03-23T02:13:45;24.52;;;5.63;;
84889;SDS011;75153;52.222;5.160;2024-03-23T02:16:11;19.37;;;5.03;;
84889;SDS011;75153;52.222;5.160;2024-03-23T02:18:36;18.07;;;4.60;;
84889;SDS011;75153;52.222;5.160;2024-03-23T02:21:02;17.27;;;4.10;;
84889;SDS011;75153;52.222;5.160;2024-03-23T02:23:28;16.05;;;4.22;;
84889;SDS011;75153;52.222;5.160;2024-03-23T02:25:53;14.77;;;4.00;;
84889;SDS011;75153;52.222;5.160;2024-03-23T02:28:19;16.20;;;4.30;;
84889;SDS011;75153;52.222;5.160;2024-03-23T02:30:45;17.95;;;4.28;;
84889;SDS011;75153;52.222;5.160;2024-03-23T02:33:11;14.20;;;4.05;;
84889;SDS011;75153;52.222;5.160;2024-03-23T02:35:36;15.43;;;4.10;;
84889;SDS011;75153;52.222;5.160;2024-03-23T02:38:01;18.60;;;4.37;;
84889;SDS011;75153;52.222;5.160;2024-03-23T02:40:27;10.73;;;3.30;;
84889;SDS011;75153;52.222;5.160;2024-03-23T02:42:53;11.70;;;3.72;;
84889;SDS011;75153;52.222;5.160;2024-03-23T02:45:18;16.03;;;3.50;;
84889;SDS011;75153;52.222;5.160;2024-03-23T02:47:44;13.90;;;3.30;;
84889;SDS011;75153;52.222;5.160;2024-03-23T02:50:09;15.33;;;3.40;;
84889;SDS011;75153;52.222;5.160;2024-03-23T02:52:35;11.48;;;2.90;;
84889;SDS011;75153;52.222;5.160;2024-03-23T02:55:01;17.80;;;3.40;;
84889;SDS011;75153;52.222;5.160;2024-03-23T02:57:30;18.65;;;3.20;;
84889;SDS011;75153;52.222;5.160;2024-03-23T02:59:55;13.00;;;2.80;;
84889;SDS011;75153;52.222;5.160;2024-03-23T03:02:21;15.27;;;2.67;;
84889;SDS011;75153;52.222;5.160;2024-03-23T03:04:46;11.90;;;2.90;;
84889;SDS011;75153;52.222;5.160;2024-03-23T03:07:12;11.50;;;2.50;;
84889;SDS011;75153;52.222;5.160;2024-03-23T03:09:38;8.95;;;2.42;;
84889;SDS011;75153;52.222;5.160;2024-03-23T03:12:07;12.43;;;2.93;;
84889;SDS011;75153;52.222;5.160;2024-03-23T03:14:33;9.90;;;2.40;;
84889;SDS011;75153;52.222;5.160;2024-03-23T03:16:58;10.30;;;2.28;;
84889;SDS011;75153;52.222;5.160;2024-03-23T03:19:24;12.47;;;2.73;;
84889;SDS011;75153;52.222;5.160;2024-03-23T03:21:49;9.63;;;2.20;;
84889;SDS011;75153;52.222;5.160;2024-03-23T03:24:14;9.17;;;2.20;;
84889;SDS011;75153;52.222;5.160;2024-03-23T03:26:40;9.73;;;2.33;;
84889;SDS011;75153;52.222;5.160;2024-03-23T03:29:05;12.48;;;2.65;;
84889;SDS011;75153;52.222;5.160;2024-03-23T03:31:31;12.40;;;2.20;;
84889;SDS011;75153;52.222;5.160;2024-03-23T03:33:56;9.03;;;2.03;;
84889;SDS011;75153;52.222;5.160;2024-03-23T03:36:21;10.43;;;2.20;;
84889;SDS011;75153;52.222;5.160;2024-03-23T03:38:47;13.07;;;2.17;;
84889;SDS011;75153;52.222;5.160;2024-03-23T03:41:12;12.77;;;2.17;;
84889;SDS011;75153;52.222;5.160;2024-03-23T03:43:38;12.88;;;2.22;;
84889;SDS011;75153;52.222;5.160;2024-03-23T03:46:03;11.57;;;1.88;;
84889;SDS011;75153;52.222;5.160;2024-03-23T03:48:29;9.30;;;1.63;;
84889;SDS011;75153;52.222;5.160;2024-03-23T03:50:54;7.20;;;1.80;;
84889;SDS011;75153;52.222;5.160;2024-03-23T03:53:20;7.15;;;1.42;;
84889;SDS011;75153;52.222;5.160;2024-03-23T03:55:46;12.27;;;1.90;;
84889;SDS011;75153;52.222;5.160;2024-03-23T03:58:11;9.10;;;1.63;;
84889;SDS011;75153;52.222;5.160;2024-03-23T04:00:37;8.97;;;2.13;;
84889;SDS011;75153;52.222;5.160;2024-03-23T04:03:02;12.17;;;2.27;;
84889;SDS011;75153;52.222;5.160;2024-03-23T04:05:28;6.68;;;1.58;;
84889;SDS011;75153;52.222;5.160;2024-03-23T04:07:53;11.00;;;1.70;;
84889;SDS011;75153;52.222;5.160;2024-03-23T04:10:19;8.07;;;1.53;;
84889;SDS011;75153;52.222;5.160;2024-03-23T04:12:45;10.40;;;1.80;;
84889;SDS011;75153;52.222;5.160;2024-03-23T04:15:11;12.95;;;2.13;;
84889;SDS011;75153;52.222;5.160;2024-03-23T04:17:36;8.70;;;1.67;;
84889;SDS011;75153;52.222;5.160;2024-03-23T04:20:02;6.25;;;1.30;;
84889;SDS011;75153;52.222;5.160;2024-03-23T04:22:36;13.10;;;1.73;;
84889;SDS011;75153;52.222;5.160;2024-03-23T04:25:04;10.68;;;1.90;;
84889;SDS011;75153;52.222;5.160;2024-03-23T04:27:34;10.70;;;1.65;;
84889;SDS011;75153;52.222;5.160;2024-03-23T04:30:00;8.57;;;1.80;;
84889;SDS011;75153;52.222;5.160;2024-03-23T04:32:26;8.80;;;2.00;;
84889;SDS011;75153;52.222;5.160;2024-03-23T04:34:53;7.20;;;1.30;;
84889;SDS011;75153;52.222;5.160;2024-03-23T04:37:20;7.72;;;1.30;;
84889;SDS011;75153;52.222;5.160;2024-03-23T04:39:46;9.82;;;2.10;;
84889;SDS011;75153;52.222;5.160;2024-03-23T04:42:11;10.37;;;1.77;;
84889;SDS011;75153;52.222;5.160;2024-03-23T04:44:37;7.47;;;1.60;;
84889;SDS011;75153;52.222;5.160;2024-03-23T04:47:02;8.25;;;1.40;;
84889;SDS011;75153;52.222;5.160;2024-03-23T04:49:28;5.20;;;1.10;;
84889;SDS011;75153;52.222;5.160;2024-03-23T04:51:53;8.07;;;1.60;;
84889;SDS011;75153;52.222;5.160;2024-03-23T04:54:18;5.30;;;1.47;;
84889;SDS011;75153;52.222;5.160;2024-03-23T04:56:47;6.53;;;1.08;;
84889;SDS011;75153;52.222;5.160;2024-03-23T04:59:13;8.47;;;1.10;;
84889;SDS011;75153;52.222;5.160;2024-03-23T05:01:38;11.53;;;1.57;;
84889;SDS011;75153;52.222;5.160;2024-03-23T05:04:08;10.48;;;1.70;;
84889;SDS011;75153;52.222;5.160;2024-03-23T05:06:33;10.75;;;1.45;;
84889;SDS011;75153;52.222;5.160;2024-03-23T05:08:59;9.02;;;1.30;;
84889;SDS011;75153;52.222;5.160;2024-03-23T05:11:25;5.70;;;1.40;;
84889;SDS011;75153;52.222;5.160;2024-03-23T05:13:50;6.60;;;1.50;;
84889;SDS011;75153;52.222;5.160;2024-03-23T05:16:16;11.13;;;1.50;;
84889;SDS011;75153;52.222;5.160;2024-03-23T05:18:41;4.53;;;1.10;;
84889;SDS011;75153;52.222;5.160;2024-03-23T05:21:06;12.32;;;1.33;;
84889;SDS011;75153;52.222;5.160;2024-03-23T05:23:32;9.33;;;1.33;;
84889;SDS011;75153;52.222;5.160;2024-03-23T05:25:57;11.13;;;1.40;;
84889;SDS011;75153;52.222;5.160;2024-03-23T05:28:22;11.23;;;1.53;;
84889;SDS011;75153;52.222;5.160;2024-03-23T05:30:51;7.03;;;1.30;;
84889;SDS011;75153;52.222;5.160;2024-03-23T05:33:20;9.77;;;1.42;;
84889;SDS011;75153;52.222;5.160;2024-03-23T05:35:46;8.00;;;1.50;;
84889;SDS011;75153;52.222;5.160;2024-03-23T05:38:11;4.28;;;0.95;;
84889;SDS011;75153;52.222;5.160;2024-03-23T05:40:37;9.13;;;1.30;;
84889;SDS011;75153;52.222;5.160;2024-03-23T05:43:05;6.63;;;1.20;;
84889;SDS011;75153;52.222;5.160;2024-03-23T05:45:31;8.38;;;1.52;;
84889;SDS011;75153;52.222;5.160;2024-03-23T05:47:56;10.50;;;2.23;;
84889;SDS011;75153;52.222;5.160;2024-03-23T05:50:22;10.70;;;1.37;;
84889;SDS011;75153;52.222;5.160;2024-03-23T05:52:48;10.25;;;1.30;;
84889;SDS011;75153;52.222;5.160;2024-03-23T05:55:14;9.77;;;1.30;;
84889;SDS011;75153;52.222;5.160;2024-03-23T05:57:39;6.50;;;2.10;;
84889;SDS011;75153;52.222;5.160;2024-03-23T06:00:05;10.20;;;1.87;;
84889;SDS011;75153;52.222;5.160;2024-03-23T06:02:37;5.50;;;1.05;;
84889;SDS011;75153;52.222;5.160;2024-03-23T06:05:02;6.20;;;1.23;;
84889;SDS011;75153;52.222;5.160;2024-03-23T06:07:28;10.77;;;1.45;;
84889;SDS011;75153;52.222;5.160;2024-03-23T06:09:53;8.77;;;1.30;;
84889;SDS011;75153;52.222;5.160;2024-03-23T06:12:18;10.47;;;1.80;;
84889;SDS011;75153;52.222;5.160;2024-03-23T06:14:44;5.90;;;1.37;;
84889;SDS011;75153;52.222;5.160;2024-03-23T06:17:09;9.67;;;1.60;;
84889;SDS011;75153;52.222;5.160;2024-03-23T06:19:34;10.73;;;2.10;;
84889;SDS011;75153;52.222;5.160;2024-03-23T06:22:00;8.67;;;1.47;;
84889;SDS011;75153;52.222;5.160;2024-03-23T06:24:25;10.25;;;2.53;;
84889;SDS011;75153;52.222;5.160;2024-03-23T06:26:50;10.85;;;1.90;;
84889;SDS011;75153;52.222;5.160;2024-03-23T06:29:16;9.07;;;1.67;;
84889;SDS011;75153;52.222;5.160;2024-03-23T06:31:41;9.07;;;1.67;;
84889;SDS011;75153;52.222;5.160;2024-03-23T06:34:07;10.83;;;1.90;;
84889;SDS011;75153;52.222;5.160;2024-03-23T06:36:32;9.70;;;1.93;;
84889;SDS011;75153;52.222;5.160;2024-03-23T06:38:57;9.90;;;1.95;;
84889;SDS011;75153;52.222;5.160;2024-03-23T06:41:23;7.20;;;2.00;;
84889;SDS011;75153;52.222;5.160;2024-03-23T06:43:49;8.00;;;1.70;;
84889;SDS011;75153;52.222;5.160;2024-03-23T06:46:14;11.03;;;2.63;;
84889;SDS011;75153;52.222;5.160;2024-03-23T06:48:40;9.73;;;2.17;;
84889;SDS011;75153;52.222;5.160;2024-03-23T06:51:05;11.13;;;2.67;;
84889;SDS011;75153;52.222;5.160;2024-03-23T06:53:32;10.98;;;2.58;;
84889;SDS011;75153;52.222;5.160;2024-03-23T06:55:57;15.73;;;2.87;;
84889;SDS011;75153;52.222;5.160;2024-03-23T06:58:24;15.25;;;3.38;;
84889;SDS011;75153;52.222;5.160;2024-03-23T07:00:50;11.73;;;2.90;;
84889;SDS011;75153;52.222;5.160;2024-03-23T07:03:18;10.55;;;2.33;;
84889;SDS011;75153;52.222;5.160;2024-03-23T07:05:44;8.35;;;2.22;;
84889;SDS011;75153;52.222;5.160;2024-03-23T07:08:11;11.03;;;2.90;;
84889;SDS011;75153;52.222;5.160;2024-03-23T07:10:39;14.23;;;3.10;;
84889;SDS011;75153;52.222;5.160;2024-03-23T07:13:04;13.38;;;2.65;;
84889;SDS011;75153;52.222;5.160;2024-03-23T07:15:30;13.83;;;2.80;;
84889;SDS011;75153;52.222;5.160;2024-03-23T07:17:55;12.07;;;2.90;;
84889;SDS011;75153;52.222;5.160;2024-03-23T07:20:20;11.37;;;2.60;;
84889;SDS011;75153;52.222;5.160;2024-03-23T07:22:46;8.70;;;2.13;;
84889;SDS011;75153;52.222;5.160;2024-03-23T07:25:12;9.95;;;2.53;;
84889;SDS011;75153;52.222;5.160;2024-03-23T07:27:38;8.70;;;2.08;;
84889;SDS011;75153;52.222;5.160;2024-03-23T07:30:03;11.50;;;2.27;;
84889;SDS011;75153;52.222;5.160;2024-03-23T07:32:29;6.73;;;1.90;;
84889;SDS011;75153;52.222;5.160;2024-03-23T07:34:55;11.10;;;1.90;;
84889;SDS011;75153;52.222;5.160;2024-03-23T07:37:20;8.07;;;1.70;;
84889;SDS011;75153;52.222;5.160;2024-03-23T07:39:45;9.30;;;2.17;;
84889;SDS011;75153;52.222;5.160;2024-03-23T07:42:11;8.10;;;1.80;;
84889;SDS011;75153;52.222;5.160;2024-03-23T07:44:36;12.63;;;2.37;;
84889;SDS011;75153;52.222;5.160;2024-03-23T07:47:02;10.70;;;1.48;;
84889;SDS011;75153;52.222;5.160;2024-03-23T07:49:28;11.63;;;1.57;;
84889;SDS011;75153;52.222;5.160;2024-03-23T07:51:54;10.90;;;1.67;;
84889;SDS011;75153;52.222;5.160;2024-03-23T07:54:19;8.00;;;1.57;;
84889;SDS011;75153;52.222;5.160;2024-03-23T07:56:44;8.40;;;1.70;;
84889;SDS011;75153;52.222;5.160;2024-03-23T07:59:10;9.53;;;1.80;;
84889;SDS011;75153;52.222;5.160;2024-03-23T08:01:36;4.50;;;1.23;;
84889;SDS011;75153;52.222;5.160;2024-03-23T08:04:01;10.20;;;1.73;;
84889;SDS011;75153;52.222;5.160;2024-03-23T08:06:27;8.75;;;1.60;;
84889;SDS011;75153;52.222;5.160;2024-03-23T08:08:54;11.10;;;1.80;;
84889;SDS011;75153;52.222;5.160;2024-03-23T08:11:27;6.72;;;1.27;;
84889;SDS011;75153;52.222;5.160;2024-03-23T08:13:53;5.97;;;1.20;;
84889;SDS011;75153;52.222;5.160;2024-03-23T08:16:19;8.98;;;1.60;;
84889;SDS011;75153;52.222;5.160;2024-03-23T08:18:45;5.03;;;1.23;;
84889;SDS011;75153;52.222;5.160;2024-03-23T08:21:10;6.55;;;1.27;;
84889;SDS011;75153;52.222;5.160;2024-03-23T08:23:36;7.63;;;1.10;;
84889;SDS011;75153;52.222;5.160;2024-03-23T08:26:03;8.18;;;1.33;;
84889;SDS011;75153;52.222;5.160;2024-03-23T08:28:30;8.38;;;1.58;;
84889;SDS011;75153;52.222;5.160;2024-03-23T08:30:56;13.15;;;2.03;;
84889;SDS011;75153;52.222;5.160;2024-03-23T08:33:25;9.77;;;1.40;;
84889;SDS011;75153;52.222;5.160;2024-03-23T08:35:58;9.45;;;1.38;;
84889;SDS011;75153;52.222;5.160;2024-03-23T08:38:25;5.68;;;0.98;;
84889;SDS011;75153;52.222;5.160;2024-03-23T08:41:01;11.80;;;1.63;;
84889;SDS011;75153;52.222;5.160;2024-03-23T08:43:28;8.23;;;1.45;;
84889;SDS011;75153;52.222;5.160;2024-03-23T08:46:09;7.18;;;1.10;;
84889;SDS011;75153;52.222;5.160;2024-03-23T08:48:40;10.20;;;1.42;;
84889;SDS011;75153;52.222;5.160;2024-03-23T08:51:09;7.20;;;1.33;;
84889;SDS011;75153;52.222;5.160;2024-03-23T08:53:35;7.97;;;1.10;;
84889;SDS011;75153;52.222;5.160;2024-03-23T08:56:02;6.82;;;1.10;;
84889;SDS011;75153;52.222;5.160;2024-03-23T08:58:28;6.43;;;1.17;;
84889;SDS011;75153;52.222;5.160;2024-03-23T09:00:55;7.60;;;1.10;;
84889;SDS011;75153;52.222;5.160;2024-03-23T09:03:22;7.35;;;1.15;;
84889;SDS011;75153;52.222;5.160;2024-03-23T09:05:49;6.50;;;1.43;;
84889;SDS011;75153;52.222;5.160;2024-03-23T09:08:14;7.07;;;1.20;;
84889;SDS011;75153;52.222;5.160;2024-03-23T09:10:40;6.53;;;1.20;;
84889;SDS011;75153;52.222;5.160;2024-03-23T09:13:06;5.88;;;1.00;;
84889;SDS011;75153;52.222;5.160;2024-03-23T09:15:35;10.55;;;1.42;;
84889;SDS011;75153;52.222;5.160;2024-03-23T09:18:02;8.57;;;1.43;;
84889;SDS011;75153;52.222;5.160;2024-03-23T09:20:28;11.68;;;1.90;;
84889;SDS011;75153;52.222;5.160;2024-03-23T09:22:54;3.72;;;0.98;;
84889;SDS011;75153;52.222;5.160;2024-03-23T09:25:19;8.20;;;1.40;;
84889;SDS011;75153;52.222;5.160;2024-03-23T09:27:48;10.68;;;1.70;;
84889;SDS011;75153;52.222;5.160;2024-03-23T09:30:14;8.77;;;1.60;;
84889;SDS011;75153;52.222;5.160;2024-03-23T09:32:43;17.67;;;2.35;;
84889;SDS011;75153;52.222;5.160;2024-03-23T09:35:09;11.03;;;1.53;;
84889;SDS011;75153;52.222;5.160;2024-03-23T09:37:35;6.55;;;1.40;;
84889;SDS011;75153;52.222;5.160;2024-03-23T09:40:01;11.73;;;1.85;;
84889;SDS011;75153;52.222;5.160;2024-03-23T09:42:27;13.07;;;1.93;;
84889;SDS011;75153;52.222;5.160;2024-03-23T09:44:53;10.27;;;1.70;;
84889;SDS011;75153;52.222;5.160;2024-03-23T09:47:19;17.40;;;1.93;;
84889;SDS011;75153;52.222;5.160;2024-03-23T09:49:44;11.18;;;1.65;;
84889;SDS011;75153;52.222;5.160;2024-03-23T09:52:10;10.43;;;1.60;;
84889;SDS011;75153;52.222;5.160;2024-03-23T09:54:35;7.63;;;1.53;;
84889;SDS011;75153;52.222;5.160;2024-03-23T09:57:01;8.32;;;1.30;;
84889;SDS011;75153;52.222;5.160;2024-03-23T09:59:26;14.82;;;1.88;;
84889;SDS011;75153;52.222;5.160;2024-03-23T10:01:52;8.67;;;1.47;;
84889;SDS011;75153;52.222;5.160;2024-03-23T10:04:35;10.32;;;2.13;;
84889;SDS011;75153;52.222;5.160;2024-03-23T10:07:38;9.43;;;1.17;;
84889;SDS011;75153;52.222;5.160;2024-03-23T10:09:56;9.23;;;1.83;;
84889;SDS011;75153;52.222;5.160;2024-03-23T10:12:22;9.77;;;1.30;;
84889;SDS011;75153;52.222;5.160;2024-03-23T10:14:49;6.27;;;1.20;;
84889;SDS011;75153;52.222;5.160;2024-03-23T10:19:46;6.38;;;1.30;;
84889;SDS011;75153;52.222;5.160;2024-03-23T10:22:16;6.17;;;1.00;;
84889;SDS011;75153;52.222;5.160;2024-03-23T10:24:46;7.53;;;1.58;;
84889;SDS011;75153;52.222;5.160;2024-03-23T10:27:15;11.27;;;1.25;;
84889;SDS011;75153;52.222;5.160;2024-03-23T10:29:48;9.05;;;1.20;;
84889;SDS011;75153;52.222;5.160;2024-03-23T10:32:15;8.57;;;1.50;;
84889;SDS011;75153;52.222;5.160;2024-03-23T10:34:41;6.40;;;1.30;;
84889;SDS011;75153;52.222;5.160;2024-03-23T10:37:07;9.68;;;1.50;;
84889;SDS011;75153;52.222;5.160;2024-03-23T10:39:34;8.80;;;1.13;;
84889;SDS011;75153;52.222;5.160;2024-03-23T10:42:04;2.63;;;0.70;;
84889;SDS011;75153;52.222;5.160;2024-03-23T10:44:31;8.00;;;1.10;;
84889;SDS011;75153;52.222;5.160;2024-03-23T10:47:00;6.78;;;1.13;;
84889;SDS011;75153;52.222;5.160;2024-03-23T10:49:33;7.32;;;1.52;;
84889;SDS011;75153;52.222;5.160;2024-03-23T10:52:01;5.57;;;1.35;;
84889;SDS011;75153;52.222;5.160;2024-03-23T10:54:30;6.43;;;1.20;;
84889;SDS011;75153;52.222;5.160;2024-03-23T10:57:01;10.40;;;1.77;;
84889;SDS011;75153;52.222;5.160;2024-03-23T10:59:31;12.55;;;1.52;;
84889;SDS011;75153;52.222;5.160;2024-03-23T11:01:57;8.10;;;1.20;;
84889;SDS011;75153;52.222;5.160;2024-03-23T11:04:33;12.73;;;1.38;;
84889;SDS011;75153;52.222;5.160;2024-03-23T11:07:00;3.93;;;0.83;;
84889;SDS011;75153;52.222;5.160;2024-03-23T11:09:39;8.30;;;0.98;;
84889;SDS011;75153;52.222;5.160;2024-03-23T11:12:25;8.73;;;1.20;;
84889;SDS011;75153;52.222;5.160;2024-03-23T11:15:04;9.35;;;1.63;;
84889;SDS011;75153;52.222;5.160;2024-03-23T11:17:31;10.98;;;1.25;;
84889;SDS011;75153;52.222;5.160;2024-03-23T11:22:42;11.73;;;1.25;;
84889;SDS011;75153;52.222;5.160;2024-03-23T11:25:12;10.40;;;1.50;;
84889;SDS011;75153;52.222;5.160;2024-03-23T11:27:38;8.38;;;1.40;;
84889;SDS011;75153;52.222;5.160;2024-03-23T11:30:10;8.20;;;1.40;;
84889;SDS011;75153;52.222;5.160;2024-03-23T11:32:56;4.85;;;1.00;;
84889;SDS011;75153;52.222;5.160;2024-03-23T11:35:32;10.20;;;0.90;;
84889;SDS011;75153;52.222;5.160;2024-03-23T11:38:05;11.63;;;1.50;;
84889;SDS011;75153;52.222;5.160;2024-03-23T11:40:38;10.95;;;1.20;;
84889;SDS011;75153;52.222;5.160;2024-03-23T11:43:05;8.88;;;1.20;;
84889;SDS011;75153;52.222;5.160;2024-03-23T11:45:35;6.32;;;1.13;;
84889;SDS011;75153;52.222;5.160;2024-03-23T11:48:03;8.50;;;1.10;;
84889;SDS011;75153;52.222;5.160;2024-03-23T11:50:29;7.28;;;1.02;;
84889;SDS011;75153;52.222;5.160;2024-03-23T11:53:05;6.70;;;1.40;;
84889;SDS011;75153;52.222;5.160;2024-03-23T11:58:24;9.13;;;1.70;;
84889;SDS011;75153;52.222;5.160;2024-03-23T12:03:23;7.43;;;1.13;;
84889;SDS011;75153;52.222;5.160;2024-03-23T12:05:54;6.30;;;1.27;;
84889;SDS011;75153;52.222;5.160;2024-03-23T12:08:21;9.27;;;1.40;;
84889;SDS011;75153;52.222;5.160;2024-03-23T12:11:06;8.52;;;1.42;;
84889;SDS011;75153;52.222;5.160;2024-03-23T12:13:34;9.88;;;1.20;;
84889;SDS011;75153;52.222;5.160;2024-03-23T12:16:12;6.23;;;0.73;;
84889;SDS011;75153;52.222;5.160;2024-03-23T12:18:40;7.05;;;1.10;;
84889;SDS011;75153;52.222;5.160;2024-03-23T12:21:07;6.47;;;0.90;;
84889;SDS011;75153;52.222;5.160;2024-03-23T12:23:33;9.57;;;1.00;;
84889;SDS011;75153;52.222;5.160;2024-03-23T12:26:00;7.00;;;1.00;;
84889;SDS011;75153;52.222;5.160;2024-03-23T12:28:25;6.43;;;1.10;;
84889;SDS011;75153;52.222;5.160;2024-03-23T12:30:51;4.30;;;0.93;;
84889;SDS011;75153;52.222;5.160;2024-03-23T12:33:17;5.60;;;1.10;;
84889;SDS011;75153;52.222;5.160;2024-03-23T12:35:43;10.25;;;1.20;;
84889;SDS011;75153;52.222;5.160;2024-03-23T12:38:08;8.10;;;1.60;;
84889;SDS011;75153;52.222;5.160;2024-03-23T12:40:34;6.87;;;1.30;;
84889;SDS011;75153;52.222;5.160;2024-03-23T12:42:59;6.67;;;1.07;;
84889;SDS011;75153;52.222;5.160;2024-03-23T12:45:25;5.33;;;0.80;;
84889;SDS011;75153;52.222;5.160;2024-03-23T12:47:50;7.20;;;1.20;;
84889;SDS011;75153;52.222;5.160;2024-03-23T12:50:18;6.35;;;0.80;;
84889;SDS011;75153;52.222;5.160;2024-03-23T12:52:44;4.95;;;0.90;;
84889;SDS011;75153;52.222;5.160;2024-03-23T12:55:10;8.40;;;1.40;;
84889;SDS011;75153;52.222;5.160;2024-03-23T12:57:35;7.73;;;1.50;;
84889;SDS011;75153;52.222;5.160;2024-03-23T13:00:01;7.72;;;0.90;;
84889;SDS011;75153;52.222;5.160;2024-03-23T13:02:28;6.57;;;1.13;;
84889;SDS011;75153;52.222;5.160;2024-03-23T13:04:54;6.93;;;1.10;;
84889;SDS011;75153;52.222;5.160;2024-03-23T13:07:20;6.63;;;1.05;;
84889;SDS011;75153;52.222;5.160;2024-03-23T13:09:46;8.20;;;0.90;;
84889;SDS011;75153;52.222;5.160;2024-03-23T13:12:12;3.22;;;0.60;;
84889;SDS011;75153;52.222;5.160;2024-03-23T13:14:38;8.30;;;0.90;;
84889;SDS011;75153;52.222;5.160;2024-03-23T13:17:04;6.18;;;1.17;;
84889;SDS011;75153;52.222;5.160;2024-03-23T13:19:29;6.32;;;0.85;;
84889;SDS011;75153;52.222;5.160;2024-03-23T13:21:59;4.72;;;0.90;;
84889;SDS011;75153;52.222;5.160;2024-03-23T13:24:26;8.85;;;1.20;;
84889;SDS011;75153;52.222;5.160;2024-03-23T13:26:52;6.65;;;1.60;;
84889;SDS011;75153;52.222;5.160;2024-03-23T13:29:18;10.77;;;2.83;;
84889;SDS011;75153;52.222;5.160;2024-03-23T13:31:45;7.33;;;2.20;;
84889;SDS011;75153;52.222;5.160;2024-03-23T13:34:11;5.75;;;1.73;;
84889;SDS011;75153;52.222;5.160;2024-03-23T13:36:36;5.30;;;0.88;;
84889;SDS011;75153;52.222;5.160;2024-03-23T13:39:02;8.13;;;0.80;;
84889;SDS011;75153;52.222;5.160;2024-03-23T13:41:34;6.57;;;0.67;;
84889;SDS011;75153;52.222;5.160;2024-03-23T13:43:59;5.95;;;0.90;;
84889;SDS011;75153;52.222;5.160;2024-03-23T13:46:24;6.77;;;0.90;;
84889;SDS011;75153;52.222;5.160;2024-03-23T13:48:50;9.30;;;1.67;;
84889;SDS011;75153;52.222;5.160;2024-03-23T13:51:15;4.97;;;0.70;;
84889;SDS011;75153;52.222;5.160;2024-03-23T13:53:49;8.02;;;0.98;;
84889;SDS011;75153;52.222;5.160;2024-03-23T13:56:14;5.73;;;1.00;;
84889;SDS011;75153;52.222;5.160;2024-03-23T13:58:39;4.07;;;1.27;;
84889;SDS011;75153;52.222;5.160;2024-03-23T14:01:05;7.67;;;1.10;;
84889;SDS011;75153;52.222;5.160;2024-03-23T14:03:30;6.40;;;0.93;;
84889;SDS011;75153;52.222;5.160;2024-03-23T14:05:58;3.20;;;0.70;;
84889;SDS011;75153;52.222;5.160;2024-03-23T14:08:23;4.22;;;0.80;;
84889;SDS011;75153;52.222;5.160;2024-03-23T14:10:49;3.20;;;0.60;;
84889;SDS011;75153;52.222;5.160;2024-03-23T14:13:14;2.17;;;0.85;;
84889;SDS011;75153;52.222;5.160;2024-03-23T14:15:40;6.43;;;1.10;;
84889;SDS011;75153;52.222;5.160;2024-03-23T14:18:05;2.17;;;0.53;;
84889;SDS011;75153;52.222;5.160;2024-03-23T14:20:31;5.47;;;0.70;;
84889;SDS011;75153;52.222;5.160;2024-03-23T14:22:56;5.30;;;0.80;;
84889;SDS011;75153;52.222;5.160;2024-03-23T14:25:21;4.43;;;0.80;;
84889;SDS011;75153;52.222;5.160;2024-03-23T14:27:52;4.55;;;0.70;;
84889;SDS011;75153;52.222;5.160;2024-03-23T14:30:17;3.77;;;0.80;;
84889;SDS011;75153;52.222;5.160;2024-03-23T14:32:43;6.13;;;0.80;;
84889;SDS011;75153;52.222;5.160;2024-03-23T14:35:08;4.97;;;1.15;;
84889;SDS011;75153;52.222;5.160;2024-03-23T14:37:36;7.30;;;0.90;;
84889;SDS011;75153;52.222;5.160;2024-03-23T14:40:02;3.83;;;1.17;;
84889;SDS011;75153;52.222;5.160;2024-03-23T14:42:28;7.35;;;1.20;;
84889;SDS011;75153;52.222;5.160;2024-03-23T14:44:53;6.47;;;1.20;;
84889;SDS011;75153;52.222;5.160;2024-03-23T14:47:19;6.87;;;1.03;;
84889;SDS011;75153;52.222;5.160;2024-03-23T14:49:46;6.28;;;1.17;;
84889;SDS011;75153;52.222;5.160;2024-03-23T14:52:15;4.45;;;0.80;;
84889;SDS011;75153;52.222;5.160;2024-03-23T14:54:40;5.07;;;0.80;;
84889;SDS011;75153;52.222;5.160;2024-03-23T14:57:05;6.93;;;1.37;;
84889;SDS011;75153;52.222;5.160;2024-03-23T14:59:34;6.18;;;1.05;;
84889;SDS011;75153;52.222;5.160;2024-03-23T15:01:59;5.83;;;1.13;;
84889;SDS011;75153;52.222;5.160;2024-03-23T15:04:25;7.53;;;1.30;;
84889;SDS011;75153;52.222;5.160;2024-03-23T15:06:50;6.00;;;0.90;;
84889;SDS011;75153;52.222;5.160;2024-03-23T15:09:15;5.20;;;0.90;;
84889;SDS011;75153;52.222;5.160;2024-03-23T15:11:41;3.47;;;0.87;;
84889;SDS011;75153;52.222;5.160;2024-03-23T15:14:06;5.13;;;1.13;;
84889;SDS011;75153;52.222;5.160;2024-03-23T15:16:34;6.72;;;1.00;;
84889;SDS011;75153;52.222;5.160;2024-03-23T15:19:00;5.53;;;0.85;;
84889;SDS011;75153;52.222;5.160;2024-03-23T15:21:25;5.87;;;1.13;;
84889;SDS011;75153;52.222;5.160;2024-03-23T15:23:50;8.27;;;1.30;;
84889;SDS011;75153;52.222;5.160;2024-03-23T15:26:16;7.53;;;1.10;;
84889;SDS011;75153;52.222;5.160;2024-03-23T15:28:41;9.27;;;1.30;;
84889;SDS011;75153;52.222;5.160;2024-03-23T15:31:30;7.25;;;1.00;;
84889;SDS011;75153;52.222;5.160;2024-03-23T15:33:56;5.43;;;0.90;;
84889;SDS011;75153;52.222;5.160;2024-03-23T15:36:21;6.20;;;0.90;;
84889;SDS011;75153;52.222;5.160;2024-03-23T15:38:46;5.37;;;0.90;;
84889;SDS011;75153;52.222;5.160;2024-03-23T15:41:14;2.47;;;0.85;;
84889;SDS011;75153;52.222;5.160;2024-03-23T15:43:39;9.20;;;1.10;;
84889;SDS011;75153;52.222;5.160;2024-03-23T15:46:05;7.47;;;0.80;;